createdAt,value
2018-12-07T00:04:45.600Z,7.73
2018-12-07T00:10:40.578Z,8.11
2018-12-07T00:16:35.587Z,7.19
2018-12-07T00:22:30.584Z,6.45
2018-12-07T00:28:25.570Z,6.39
2018-12-07T00:34:20.574Z,8.63
2018-12-07T00:40:15.581Z,9.34
2018-12-07T00:46:10.587Z,6.71
2018-12-07T00:52:05.586Z,6.76
2018-12-07T00:58:00.602Z,7.43
2018-12-07T01:03:55.592Z,4.35
2018-12-07T01:09:50.579Z,4.3
2018-12-07T01:15:45.642Z,6.47
2018-12-07T01:21:40.639Z,5.17
2018-12-07T01:27:35.609Z,4.67
2018-12-07T01:33:30.632Z,13.26
2018-12-07T01:39:25.640Z,7.14
2018-12-07T01:45:20.627Z,5.42
2018-12-07T01:51:15.659Z,5.37
2018-12-07T01:57:10.633Z,6.69
2018-12-07T02:03:05.602Z,11.94
2018-12-07T02:09:00.645Z,10.42
2018-12-07T02:14:55.671Z,10.74
2018-12-07T02:20:50.620Z,10.96
2018-12-07T02:26:45.675Z,11.61
2018-12-07T02:32:40.698Z,8.38
2018-12-07T02:38:35.674Z,5.65
2018-12-07T02:44:30.684Z,4.14
2018-12-07T02:50:25.653Z,4.68
2018-12-07T02:56:20.690Z,5.07
2018-12-07T03:02:15.669Z,5.7
2018-12-07T03:08:10.690Z,4.86
2018-12-07T03:14:05.657Z,5.03
2018-12-07T03:20:00.671Z,4.27
2018-12-07T03:25:55.735Z,4.76
2018-12-07T03:31:50.705Z,5.34
2018-12-07T03:37:45.671Z,5.86
2018-12-07T03:43:40.713Z,5.31
2018-12-07T03:49:35.675Z,4.33
2018-12-07T03:55:30.683Z,5.26
2018-12-07T04:01:25.715Z,6.62
2018-12-07T04:07:20.692Z,6.82
2018-12-07T04:13:15.683Z,7.17
2018-12-07T04:19:10.731Z,7.66
2018-12-07T04:25:05.708Z,8.7
2018-12-07T04:31:00.694Z,9
2018-12-07T04:36:55.689Z,9.6
2018-12-07T04:42:50.747Z,7.29
2018-12-07T04:48:45.708Z,15.19
2018-12-07T04:54:40.734Z,7.63
2018-12-07T05:00:35.738Z,12.75
2018-12-07T05:06:30.747Z,8.31
2018-12-07T05:12:25.703Z,8.29
2018-12-07T05:18:20.717Z,8.12
2018-12-07T05:24:15.729Z,8.32
2018-12-07T05:30:10.719Z,7.57
2018-12-07T05:36:05.734Z,7.92
2018-12-07T05:42:00.758Z,7.91
2018-12-07T05:47:55.769Z,8.26
2018-12-07T05:53:50.739Z,8.45
2018-12-07T05:59:45.764Z,8.48
2018-12-07T06:05:40.995Z,7.3
2018-12-07T06:11:35.754Z,10.24
2018-12-07T06:17:30.744Z,8.56
2018-12-07T06:23:25.791Z,8.19
2018-12-07T06:29:20.738Z,8
2018-12-07T06:35:15.767Z,6.81
2018-12-07T06:41:10.758Z,7.27
2018-12-07T06:47:05.799Z,7.01
2018-12-07T06:53:00.799Z,7.38
2018-12-07T06:58:55.777Z,6.99
2018-12-07T07:04:50.809Z,7.46
2018-12-07T07:10:45.795Z,8.68
2018-12-07T07:16:40.767Z,10.65
2018-12-07T07:22:35.794Z,12.23
2018-12-07T07:28:30.776Z,11.34
2018-12-07T07:34:25.775Z,11.43
2018-12-07T07:40:20.780Z,11.07
2018-12-07T07:46:15.804Z,11.57
2018-12-07T07:52:10.788Z,11.35
2018-12-07T07:58:05.850Z,12.17
2018-12-07T08:04:00.835Z,15.3
2018-12-07T08:09:55.842Z,18.28
2018-12-07T08:15:50.794Z,15.09
2018-12-07T08:21:45.827Z,17.37
2018-12-07T08:27:40.831Z,18.75
2018-12-07T08:33:35.814Z,19.69
2018-12-07T08:39:30.836Z,21.07
2018-12-07T08:45:25.832Z,20.11
2018-12-07T08:51:20.827Z,21.99
2018-12-07T08:57:15.850Z,19.23
2018-12-07T09:03:10.965Z,20.13
2018-12-07T09:09:05.862Z,20.48
2018-12-07T09:15:00.936Z,19.86
2018-12-07T09:20:55.848Z,24.15
2018-12-07T09:26:50.849Z,26.44
2018-12-07T09:32:45.858Z,27.76
2018-12-07T09:38:40.878Z,22.45
2018-12-07T09:44:35.883Z,21.85
2018-12-07T09:50:30.884Z,22.04
2018-12-07T09:56:25.873Z,23.13
2018-12-07T10:02:20.877Z,19.85
2018-12-07T10:08:15.873Z,24.08
2018-12-07T10:14:10.859Z,27.81
2018-12-07T10:20:05.875Z,29.46
2018-12-07T10:26:00.925Z,26.38
2018-12-07T10:31:55.878Z,27.66
2018-12-07T10:37:50.887Z,27.19
2018-12-07T10:43:45.880Z,24.64
2018-12-07T10:49:40.916Z,25.44
2018-12-07T10:55:35.913Z,25.04
2018-12-07T11:01:30.910Z,27.36
2018-12-07T11:07:25.909Z,25.03
2018-12-07T11:13:20.959Z,29.39
2018-12-07T11:19:15.892Z,28.66
2018-12-07T11:25:10.925Z,33.96
2018-12-07T11:31:05.903Z,37.26
2018-12-07T11:37:00.922Z,31.85
2018-12-07T11:42:55.911Z,28.03
2018-12-07T11:48:50.970Z,28.35
2018-12-07T11:54:46.006Z,27.87
2018-12-07T12:00:40.910Z,32.13
2018-12-07T12:06:35.986Z,32.96
2018-12-07T12:12:30.934Z,32.9
2018-12-07T12:18:25.929Z,34.03
2018-12-07T12:24:20.940Z,32.26
2018-12-07T12:30:15.931Z,31.22
2018-12-07T12:36:16.916Z,33.81
2018-12-07T12:42:05.935Z,33.58
2018-12-07T12:48:02.598Z,31.28
2018-12-07T12:53:55.944Z,28.18
2018-12-07T12:59:50.964Z,30.27
2018-12-07T13:05:45.953Z,28.77
2018-12-07T13:11:40.983Z,26.68
2018-12-07T13:17:35.956Z,24.36
2018-12-07T13:23:30.975Z,22.96
2018-12-07T13:29:25.983Z,27.68
2018-12-07T13:35:21.313Z,32.43
2018-12-07T13:41:16.021Z,35.26
2018-12-07T13:47:10.993Z,32.5
2018-12-07T13:53:06.175Z,33.76
2018-12-07T13:59:01.156Z,37.21
2018-12-07T14:04:56.003Z,39.59
2018-12-07T14:10:51.055Z,39.32
2018-12-07T14:16:46.132Z,40.17
2018-12-07T14:22:41.022Z,40.45
2018-12-07T14:28:36.050Z,37.76
2018-12-07T14:34:31.015Z,35.83
2018-12-07T14:40:26.116Z,39.75
2018-12-07T14:46:21.167Z,36.51
2018-12-07T14:52:16.127Z,27.35
2018-12-07T14:58:11.133Z,18.9
2018-12-07T15:04:06.163Z,21.77
2018-12-07T15:10:01.230Z,21.81
2018-12-07T15:15:56.083Z,24.22
2018-12-07T15:21:51.248Z,26.07
2018-12-07T15:27:46.024Z,27.58
2018-12-07T15:33:41.117Z,30.79
2018-12-07T15:39:36.097Z,29.78
2018-12-07T15:45:31.085Z,28.4
2018-12-07T15:51:26.169Z,27.29
2018-12-07T15:57:21.104Z,28.08
2018-12-07T16:03:16.220Z,29.88
2018-12-07T16:09:11.055Z,30.33
2018-12-07T16:15:06.107Z,27.99
2018-12-07T16:21:01.061Z,28.89
2018-12-07T16:26:56.091Z,26.73
2018-12-07T16:32:51.070Z,26.07
2018-12-07T16:38:46.113Z,24.33
2018-12-07T16:44:41.224Z,24.34
2018-12-07T16:50:36.338Z,24.17
2018-12-07T16:56:31.421Z,26.16
2018-12-07T17:02:26.274Z,25.03
2018-12-07T17:08:21.360Z,32.05
2018-12-07T17:14:16.065Z,33.78
2018-12-07T17:20:11.234Z,35.5
2018-12-07T17:26:06.347Z,34.63
2018-12-07T17:32:01.171Z,35.37
2018-12-07T17:37:56.388Z,37.22
2018-12-07T17:43:51.230Z,32.56
2018-12-07T17:49:46.340Z,35.09
2018-12-07T17:55:41.294Z,34
2018-12-07T18:01:36.103Z,34.55
2018-12-07T18:07:31.131Z,31.2
2018-12-07T18:13:26.150Z,30.79
2018-12-07T18:19:21.257Z,32.26
2018-12-07T18:25:16.118Z,33.93
2018-12-07T18:31:11.338Z,32.18
2018-12-07T18:37:06.172Z,29.25
2018-12-07T18:43:01.377Z,31.8
2018-12-07T18:48:56.237Z,34.77
2018-12-07T18:54:51.178Z,39.2
2018-12-07T19:00:46.224Z,35.3
2018-12-07T19:06:41.254Z,35.8
2018-12-07T19:12:36.231Z,35.44
2018-12-07T19:18:31.183Z,34.58
2018-12-07T19:24:26.221Z,29
2018-12-07T19:30:21.529Z,29.52
2018-12-07T19:36:16.454Z,27.73
2018-12-07T19:42:11.155Z,28.46
2018-12-07T19:48:06.432Z,30.26
2018-12-07T19:54:01.167Z,27.05
2018-12-07T19:59:56.340Z,36.34
2018-12-07T20:05:51.193Z,39.54
2018-12-07T20:11:46.460Z,40.74
2018-12-07T20:17:41.446Z,43.01
2018-12-07T20:23:36.569Z,40.3
2018-12-07T20:29:31.398Z,36.08
2018-12-07T20:35:26.335Z,39.1
2018-12-07T20:41:21.253Z,40.43
2018-12-07T20:47:24.502Z,38.07
2018-12-07T20:53:11.208Z,35.01
2018-12-07T20:59:06.290Z,35.02
2018-12-07T21:05:01.364Z,34.92
2018-12-07T21:10:56.214Z,31.58
2018-12-07T21:16:51.441Z,30.48
2018-12-07T21:22:46.223Z,31.51
2018-12-07T21:28:41.285Z,25.71
2018-12-07T21:34:36.607Z,23.82
2018-12-07T21:40:31.358Z,23.55
2018-12-07T21:46:26.251Z,26.17
2018-12-07T21:52:21.487Z,23.37
2018-12-07T21:58:16.331Z,24.52
2018-12-07T22:04:11.562Z,24.83
2018-12-07T22:10:06.335Z,20.28
2018-12-07T22:16:01.249Z,20.35
2018-12-07T22:21:56.369Z,24.6
2018-12-07T22:27:51.289Z,24.74
2018-12-07T22:33:46.310Z,23.77
2018-12-07T22:39:41.325Z,25.14
2018-12-07T22:45:36.478Z,23.14
2018-12-07T22:51:31.267Z,22.09
2018-12-07T22:57:26.309Z,21.8
2018-12-07T23:03:21.287Z,20.59
2018-12-07T23:09:16.281Z,20.31
2018-12-07T23:15:11.306Z,19.3
2018-12-07T23:21:06.288Z,18.7
2018-12-07T23:27:01.286Z,18.71
2018-12-07T23:32:56.298Z,17.89
2018-12-07T23:38:51.305Z,18.28
2018-12-07T23:44:46.345Z,15.05
2018-12-07T23:50:41.339Z,12.23
2018-12-07T23:56:36.323Z,10.63
